ROMMA est une association bénévole à but non lucratif. Votre soutien est indispensable : ADHERER à ROMMA ou FAIRE un DON

Granges-lès-Beaumont - (26, Drôme)

Drôme des Collines (155 m)   Longitude: 04°58'E   Latitude: 45°03'N Station partenaire n°123
 

Détail journalier du     <<     >>

Température Precipitation Humidité Pression Vent Dir Rafale Dir. rafale Ensol.
Heure (°C) (mm) (%) (hPa) (km/h) (km/h) (min)
01:00 12.705810089S27S0
02:00 11.906410078S23SSO0
03:00 11.406910076SSO18S0
04:00 11.307110078SSO21SSO0
05:00 10.207410063SSE15S0
06:00 9.807810051SSE6SSE0
07:00 9.608110052ESE8ESE0
08:00 9.908110051---8SE0
09:00 10.508010053ESE13ESE0
10:00 11.307410057ESE18ESE0
11:00 12.207410053SE8ESE0
12:00 12.706910055SSE13SE0
13:00 13.106810067SSE18S0
14:00 13.106810069S24S0
15:00 13.206810066S19S0
16:00 12.707510063SSE11S0
17:00 12.507710062SSE8SSE0
18:00 11.3082100612ENE23ENE0
19:00 10.8083100611ENE21E0
20:00 10.7083100610ENE19ENE0
21:00 10.608410067ENE21ENE0
22:00 10.708610071ENE8ENE0
23:00 10.408710071---6ENE0
minuit 10.308710071NNO5NNO0

Graphique du 17-05-2019

 

Serveur OMMA